Oak Hill, New York
Current Conditions -  °F | °C
As of 2:51 AM on Thursday 27 Nov 2014 (Local Time) from KALB Reporting Station
Light Snow Light Snow  
Wind Chill: 21°   Ceiling: 3800
Heat Index: 30°   Visibility: 3mi
Dew Point: 27°   Wind: 12mph
Humidity: 88%   Direction: 340°NNW
Pressure: 29.92"   Gusts: NA
Location:  42.41°N, 74.15°W
Report Text: KALB 270751Z 34010KT 3SM -SN BR FEW008 OVC038 M01/M03 A2992 RMK AO2 SFC VIS 4 SLP135 P0000 T10111028
Loading
Personal Weather Stations






























Interactive Weather Map New forecast layout! Learn more

10-Day Weather Forecast

Advertisements
Track Severe Weather on mobile